createdAt,value
2023-02-24T00:00:17.489Z,99367.84
2023-02-24T00:02:44.352Z,99366.28
2023-02-24T00:05:11.159Z,99365.34
2023-02-24T00:07:39.269Z,99360.31
2023-02-24T00:10:08.179Z,99356.13
2023-02-24T00:12:34.929Z,99363.00
2023-02-24T00:15:01.672Z,99368.16
2023-02-24T00:17:28.569Z,99363.53
2023-02-24T00:19:55.434Z,99361.41
2023-02-24T00:22:22.760Z,99362.34
2023-02-24T00:24:53.999Z,99362.53
2023-02-24T00:27:21.777Z,99364.56
2023-02-24T00:29:48.774Z,99358.50
2023-02-24T00:32:15.596Z,99357.63
2023-02-24T00:34:42.778Z,99355.31
2023-02-24T00:37:10.116Z,99355.47
2023-02-24T00:39:38.166Z,99352.44
2023-02-24T00:42:07.740Z,99352.22
2023-02-24T00:44:38.024Z,99346.16
2023-02-24T00:47:08.261Z,99335.56
2023-02-24T00:49:36.819Z,99334.25
2023-02-24T00:52:03.748Z,99328.06
2023-02-24T00:54:30.621Z,99327.19
2023-02-24T00:56:57.379Z,99323.22
2023-02-24T00:59:25.590Z,99328.97
2023-02-24T01:01:54.678Z,99332.72
2023-02-24T01:04:22.620Z,99331.09
2023-02-24T01:06:54.011Z,99327.78
2023-02-24T01:09:21.223Z,99336.31
2023-02-24T01:11:49.773Z,99331.53
2023-02-24T01:14:20.204Z,99324.84
2023-02-24T01:16:48.762Z,99328.97
2023-02-24T01:19:17.089Z,99330.69
2023-02-24T01:21:44.167Z,99321.78
2023-02-24T01:24:11.026Z,99315.34
2023-02-24T01:26:37.887Z,99312.41
2023-02-24T01:29:05.680Z,99317.81
2023-02-24T01:31:32.629Z,99324.00
2023-02-24T01:34:00.918Z,99309.09
2023-02-24T01:36:27.946Z,99311.34
2023-02-24T01:38:54.705Z,99310.28
2023-02-24T01:41:24.708Z,99303.00
2023-02-24T01:44:03.178Z,99308.41
2023-02-24T01:46:33.784Z,99303.00
2023-02-24T01:49:07.417Z,99308.41
2023-02-24T01:51:42.645Z,99299.13
2023-02-24T01:54:14.579Z,99293.56
2023-02-24T01:56:42.702Z,99299.56
2023-02-24T01:59:10.807Z,99294.38
2023-02-24T02:01:39.697Z,99295.22
2023-02-24T02:04:17.956Z,99289.00
2023-02-24T02:06:47.853Z,99289.22
2023-02-24T02:09:16.298Z,99292.97
2023-02-24T02:11:43.738Z,99268.56
2023-02-24T02:14:10.531Z,99261.44
2023-02-24T02:16:58.761Z,99259.25
2023-02-24T02:20:26.904Z,99271.16
2023-02-24T02:23:35.668Z,99270.06
2023-02-24T02:26:53.952Z,99258.13
2023-02-24T02:29:59.250Z,99253.50
2023-02-24T02:33:03.609Z,99250.47
2023-02-24T02:35:42.779Z,99254.53
2023-02-24T02:38:19.768Z,99247.81
2023-02-24T02:40:59.202Z,99252.53
2023-02-24T02:43:41.979Z,99260.88
2023-02-24T02:46:17.478Z,99249.41
2023-02-24T02:48:54.636Z,99253.34
2023-02-24T02:51:33.420Z,99240.84
2023-02-24T02:54:08.501Z,99243.22
2023-02-24T02:56:41.504Z,99235.28
2023-02-24T02:59:15.312Z,99234.44
2023-02-24T03:01:45.907Z,99231.19
2023-02-24T03:04:17.557Z,99234.09
2023-02-24T03:06:53.546Z,99236.56
2023-02-24T03:09:27.751Z,99237.00
2023-02-24T03:12:01.101Z,99237.47
2023-02-24T03:14:35.965Z,99236.19
2023-02-24T03:17:06.671Z,99239.00
2023-02-24T03:19:39.632Z,99238.94
2023-02-24T03:22:13.831Z,99231.06
2023-02-24T03:24:43.215Z,99228.75
2023-02-24T03:27:27.566Z,99233.69
2023-02-24T03:30:02.535Z,99229.69
2023-02-24T03:32:38.448Z,99227.72
2023-02-24T03:35:16.556Z,99219.28
2023-02-24T03:37:46.374Z,99228.47
2023-02-24T03:40:15.186Z,99227.34
2023-02-24T03:42:47.580Z,99232.47
2023-02-24T03:45:16.695Z,99222.84
2023-02-24T03:47:43.989Z,99214.81
2023-02-24T03:50:14.038Z,99214.00
2023-02-24T03:52:56.222Z,99222.09
2023-02-24T03:55:43.857Z,99219.63
2023-02-24T03:58:22.535Z,99218.31
2023-02-24T04:01:00.067Z,99220.50
2023-02-24T04:03:34.953Z,99218.44
2023-02-24T04:06:26.090Z,99212.69
2023-02-24T04:09:06.960Z,99216.44
2023-02-24T04:11:52.460Z,99216.06
2023-02-24T04:14:29.631Z,99218.59
2023-02-24T04:17:04.618Z,99220.13
2023-02-24T04:19:39.275Z,99214.72
2023-02-24T04:22:14.019Z,99217.69
2023-02-24T04:24:50.516Z,99218.66
2023-02-24T04:27:19.747Z,99203.22
2023-02-24T04:29:53.144Z,99202.31
2023-02-24T04:32:26.599Z,99193.31
2023-02-24T04:34:53.655Z,99197.00
2023-02-24T04:37:21.072Z,99193.44
2023-02-24T04:39:50.332Z,99191.13
2023-02-24T04:42:24.722Z,99180.13
2023-02-24T04:44:52.492Z,99185.66
2023-02-24T04:47:19.551Z,99187.31
2023-02-24T04:49:46.357Z,99171.94
2023-02-24T04:52:13.110Z,99169.19
2023-02-24T04:54:39.857Z,99171.25
2023-02-24T04:57:08.122Z,99166.69
2023-02-24T04:59:34.931Z,99158.38
2023-02-24T05:02:01.776Z,99159.22
2023-02-24T05:04:29.094Z,99161.06
2023-02-24T05:06:56.495Z,99158.38
2023-02-24T05:09:24.086Z,99152.16
2023-02-24T05:11:52.744Z,99154.25
2023-02-24T05:14:21.140Z,99150.00
2023-02-24T05:16:49.324Z,99154.94
2023-02-24T05:19:20.040Z,99150.56
2023-02-24T05:21:46.836Z,99142.69
2023-02-24T05:24:13.579Z,99145.28
2023-02-24T05:26:40.457Z,99136.28
2023-02-24T05:29:07.991Z,99136.66
2023-02-24T05:31:36.407Z,99141.84
2023-02-24T05:34:06.655Z,99131.84
2023-02-24T05:36:36.744Z,99137.03
2023-02-24T05:39:04.005Z,99132.06
2023-02-24T05:41:30.726Z,99123.84
2023-02-24T05:43:57.946Z,99118.66
2023-02-24T05:46:27.539Z,99123.69
2023-02-24T05:48:56.945Z,99119.78
2023-02-24T05:51:23.971Z,99118.72
2023-02-24T05:53:51.289Z,99113.72
2023-02-24T05:56:18.139Z,99121.34
2023-02-24T05:58:44.962Z,99112.94
2023-02-24T06:01:12.788Z,99108.97
2023-02-24T06:03:40.072Z,99107.31
2023-02-24T06:06:08.168Z,99104.63
2023-02-24T06:08:36.153Z,99101.72
2023-02-24T06:11:03.071Z,99104.84
2023-02-24T06:13:29.974Z,99105.50
2023-02-24T06:15:57.161Z,99102.81
2023-02-24T06:18:23.999Z,99099.28
2023-02-24T06:20:50.792Z,99099.50
2023-02-24T06:23:18.926Z,99100.81
2023-02-24T06:25:45.709Z,99097.75
2023-02-24T06:28:12.487Z,99099.56
2023-02-24T06:30:39.415Z,99090.94
2023-02-24T06:33:06.205Z,99097.50
2023-02-24T06:35:33.108Z,99095.34
2023-02-24T06:37:59.845Z,99094.72
2023-02-24T06:40:27.960Z,99083.78
2023-02-24T06:42:54.758Z,99094.94
2023-02-24T06:45:23.671Z,99089.59
2023-02-24T06:47:50.653Z,99086.88
2023-02-24T06:50:19.969Z,99093.25
2023-02-24T06:52:47.505Z,99079.03
2023-02-24T06:55:14.711Z,99080.94
2023-02-24T06:57:53.861Z,99082.59
2023-02-24T07:00:21.508Z,99093.63
2023-02-24T07:02:48.348Z,99077.69
2023-02-24T07:05:15.440Z,99082.56
2023-02-24T07:07:42.694Z,99083.28
2023-02-24T07:10:11.138Z,99083.16
2023-02-24T07:12:37.984Z,99080.50
2023-02-24T07:15:09.046Z,99088.09
2023-02-24T07:17:36.825Z,99081.28
2023-02-24T07:20:04.803Z,99088.00
2023-02-24T07:22:31.886Z,99090.44
2023-02-24T07:24:59.110Z,99090.97
2023-02-24T07:27:26.108Z,99093.41
2023-02-24T07:30:05.941Z,99090.44
2023-02-24T07:32:41.880Z,99082.13
2023-02-24T07:35:09.289Z,99077.34
2023-02-24T07:37:41.167Z,99074.66
2023-02-24T07:40:10.545Z,99071.38
2023-02-24T07:42:37.452Z,99070.53
2023-02-24T07:45:08.234Z,99065.16
2023-02-24T07:47:35.283Z,99068.59
2023-02-24T07:50:03.974Z,99066.88
2023-02-24T07:52:33.186Z,99066.78
2023-02-24T07:55:02.931Z,99064.97
2023-02-24T07:57:29.824Z,99068.78
2023-02-24T07:59:59.695Z,99069.22
2023-02-24T08:02:26.692Z,99062.16
2023-02-24T08:04:53.795Z,99054.41
2023-02-24T08:07:21.997Z,99058.69
2023-02-24T08:09:49.768Z,99058.75
2023-02-24T08:12:19.868Z,99051.28
2023-02-24T08:14:49.487Z,99055.34
2023-02-24T08:17:18.354Z,99060.06
2023-02-24T08:19:48.475Z,99045.50
2023-02-24T08:22:17.136Z,99051.84
2023-02-24T08:24:45.621Z,99049.72
2023-02-24T08:27:12.390Z,99045.50
2023-02-24T08:29:39.350Z,99040.50
2023-02-24T08:32:06.614Z,99042.59
2023-02-24T08:34:33.408Z,99048.16
2023-02-24T08:37:00.185Z,99039.41
2023-02-24T08:39:27.643Z,99040.69
2023-02-24T08:41:56.725Z,99045.44
2023-02-24T08:44:25.278Z,99034.50
2023-02-24T08:46:52.884Z,99018.88
2023-02-24T08:49:25.406Z,99021.41
2023-02-24T08:51:53.031Z,99024.94
2023-02-24T08:54:23.653Z,99026.75
2023-02-24T08:56:50.636Z,99031.00
2023-02-24T08:59:19.392Z,99027.69
2023-02-24T09:01:50.767Z,99024.16
2023-02-24T09:04:20.886Z,99021.47
2023-02-24T09:06:55.651Z,99020.78
2023-02-24T09:09:27.907Z,99019.91
2023-02-24T09:11:58.713Z,99025.09
2023-02-24T09:14:31.107Z,99013.25
2023-02-24T09:16:59.655Z,99010.91
2023-02-24T09:19:30.561Z,99001.09
2023-02-24T09:21:57.587Z,98993.97
2023-02-24T09:24:24.849Z,98992.66
2023-02-24T09:26:51.590Z,98998.78
2023-02-24T09:29:19.044Z,99000.19
2023-02-24T09:31:47.468Z,99003.03
2023-02-24T09:34:14.732Z,98995.84
2023-02-24T09:36:42.630Z,99002.56
2023-02-24T09:39:09.508Z,98994.31
2023-02-24T09:41:39.699Z,98998.66
2023-02-24T09:44:15.668Z,98992.91
2023-02-24T09:46:52.343Z,98991.03
2023-02-24T09:49:24.069Z,98987.00
2023-02-24T09:51:51.483Z,98985.38
2023-02-24T09:54:21.553Z,98988.88
2023-02-24T09:56:58.695Z,98980.53
2023-02-24T09:59:39.438Z,98983.91
2023-02-24T10:02:37.549Z,98979.13
2023-02-24T10:05:22.707Z,98971.88
2023-02-24T10:07:50.536Z,98962.16
2023-02-24T10:10:23.480Z,98955.59
2023-02-24T10:12:56.019Z,98960.41
2023-02-24T10:15:31.574Z,98963.25
2023-02-24T10:18:26.229Z,98962.91
2023-02-24T10:21:20.848Z,98962.09
2023-02-24T10:24:03.895Z,98954.69
2023-02-24T10:26:51.148Z,98960.00
2023-02-24T10:29:45.241Z,98950.81
2023-02-24T10:32:20.825Z,98947.56
2023-02-24T10:34:49.574Z,98942.88
2023-02-24T10:37:28.154Z,98947.34
2023-02-24T10:40:02.642Z,98938.22
2023-02-24T10:42:32.516Z,98932.69
2023-02-24T10:45:17.688Z,98942.47
2023-02-24T10:47:50.825Z,98938.22
2023-02-24T10:50:26.204Z,98935.88
2023-02-24T10:53:00.848Z,98934.81
2023-02-24T10:55:33.669Z,98931.31
2023-02-24T10:58:03.540Z,98932.00
2023-02-24T11:00:30.414Z,98921.53
2023-02-24T11:02:57.262Z,98919.53
2023-02-24T11:05:26.561Z,98911.06
2023-02-24T11:08:06.964Z,98907.50
2023-02-24T11:10:41.857Z,98893.53
2023-02-24T11:13:16.900Z,98896.94
2023-02-24T11:15:49.201Z,98892.00
2023-02-24T11:18:21.047Z,98888.72
2023-02-24T11:20:55.678Z,98877.53
2023-02-24T11:23:29.005Z,98872.81
2023-02-24T11:26:01.140Z,98874.00
2023-02-24T11:28:57.225Z,98862.03
2023-02-24T11:31:47.057Z,98864.25
2023-02-24T11:34:23.521Z,98856.72
2023-02-24T11:37:22.461Z,98855.34
2023-02-24T11:40:11.462Z,98844.16
2023-02-24T11:42:48.707Z,98835.88
2023-02-24T11:45:32.036Z,98828.28
2023-02-24T11:48:06.074Z,98824.94
2023-02-24T11:50:41.113Z,98821.41
2023-02-24T11:53:26.633Z,98810.09
2023-02-24T11:56:02.659Z,98809.72
2023-02-24T11:58:40.693Z,98799.47
2023-02-24T12:01:16.698Z,98797.03
2023-02-24T12:04:01.117Z,98782.84
2023-02-24T12:06:37.370Z,98781.38
2023-02-24T12:09:13.604Z,98766.81
2023-02-24T12:11:52.205Z,98759.66
2023-02-24T12:14:30.744Z,98733.31
2023-02-24T12:17:16.606Z,98738.72
2023-02-24T12:19:58.472Z,98740.56
2023-02-24T12:22:33.469Z,98737.06
2023-02-24T12:25:01.923Z,98738.78
2023-02-24T12:27:46.054Z,98742.28
2023-02-24T12:30:32.426Z,98734.31
2023-02-24T12:33:19.191Z,98729.97
2023-02-24T12:35:59.884Z,98731.06
2023-02-24T12:38:48.113Z,98723.22
2023-02-24T12:41:43.009Z,98715.59
2023-02-24T12:44:26.584Z,98709.34
2023-02-24T12:47:07.117Z,98705.03
2023-02-24T12:50:01.188Z,98707.59
2023-02-24T12:52:49.180Z,98708.56
2023-02-24T12:55:26.423Z,98706.78
2023-02-24T12:58:08.935Z,98699.06
2023-02-24T13:00:52.024Z,98685.50
2023-02-24T13:03:46.230Z,98690.41
2023-02-24T13:06:27.704Z,98678.88
2023-02-24T13:09:05.585Z,98666.75
2023-02-24T13:11:43.173Z,98671.16
2023-02-24T13:14:24.031Z,98662.03
2023-02-24T13:16:50.929Z,98663.28
2023-02-24T13:19:21.530Z,98657.91
2023-02-24T13:22:01.440Z,98650.81
2023-02-24T13:24:28.686Z,98650.84
2023-02-24T13:27:07.152Z,98647.59
2023-02-24T13:29:47.031Z,98650.81
2023-02-24T13:32:29.385Z,98644.31
2023-02-24T13:34:59.566Z,98640.25
2023-02-24T13:37:33.648Z,98633.22
2023-02-24T13:40:00.763Z,98633.47
2023-02-24T13:42:30.179Z,98621.41
2023-02-24T13:45:19.024Z,98622.25
2023-02-24T13:48:25.479Z,98623.56
2023-02-24T13:51:21.948Z,98619.69
2023-02-24T13:54:13.701Z,98610.69
2023-02-24T13:56:49.638Z,98608.63
2023-02-24T14:00:01.619Z,98600.34
2023-02-24T14:02:43.431Z,98599.50
2023-02-24T14:05:21.845Z,98601.00
2023-02-24T14:07:51.898Z,98595.91
2023-02-24T14:10:28.954Z,98592.00
2023-02-24T14:13:16.618Z,98591.91
2023-02-24T14:18:39.236Z,98579.16
2023-02-24T14:21:06.132Z,98585.81
2023-02-24T14:23:34.815Z,98588.19
2023-02-24T14:26:08.458Z,98583.19
2023-02-24T14:28:37.861Z,98569.50
2023-02-24T14:31:10.240Z,98572.75
2023-02-24T14:33:43.337Z,98562.03
2023-02-24T14:36:18.292Z,98568.69
2023-02-24T14:38:45.713Z,98570.09
2023-02-24T14:41:21.476Z,98557.94
2023-02-24T14:43:48.717Z,98557.94
2023-02-24T14:46:15.714Z,98559.09
2023-02-24T14:48:46.069Z,98557.50
2023-02-24T14:51:26.749Z,98548.97
2023-02-24T14:53:59.138Z,98538.25
2023-02-24T14:56:32.122Z,98539.44
2023-02-24T14:59:07.502Z,98537.88
2023-02-24T15:01:42.508Z,98529.66
2023-02-24T15:04:25.501Z,98524.75
2023-02-24T15:06:52.665Z,98531.88
2023-02-24T15:09:27.657Z,98520.53
2023-02-24T15:11:55.435Z,98504.59
2023-02-24T15:14:27.334Z,98503.31
2023-02-24T15:16:59.938Z,98500.09
2023-02-24T15:19:34.747Z,98500.91
2023-02-24T15:22:01.582Z,98503.84
2023-02-24T15:24:32.456Z,98499.25
2023-02-24T15:27:03.296Z,98487.16
2023-02-24T15:29:31.578Z,98484.03
2023-02-24T15:32:00.624Z,98482.47
2023-02-24T15:34:34.037Z,98480.09
2023-02-24T15:37:15.166Z,98475.56
2023-02-24T15:39:44.108Z,98480.09
2023-02-24T15:42:29.927Z,98472.53
2023-02-24T15:45:27.924Z,98470.31
2023-02-24T15:47:58.051Z,98466.00
2023-02-24T15:50:30.102Z,98458.00
2023-02-24T15:53:04.634Z,98464.53
2023-02-24T15:55:33.424Z,98463.56
2023-02-24T15:58:03.399Z,98455.38
2023-02-24T16:00:36.610Z,98447.78
2023-02-24T16:03:16.045Z,98463.91
2023-02-24T16:05:47.453Z,98467.50
2023-02-24T16:08:29.411Z,98453.19
2023-02-24T16:11:23.755Z,98453.34
2023-02-24T16:13:56.757Z,98450.75
2023-02-24T16:16:25.982Z,98446.72
2023-02-24T16:18:53.334Z,98444.84
2023-02-24T16:21:21.648Z,98438.47
2023-02-24T16:23:48.607Z,98424.88
2023-02-24T16:26:20.130Z,98433.81
2023-02-24T16:28:54.067Z,98432.91
2023-02-24T16:31:21.615Z,98418.00
2023-02-24T16:33:54.931Z,98419.56
2023-02-24T16:36:26.401Z,98435.91
2023-02-24T16:38:54.472Z,98434.63
2023-02-24T16:41:21.621Z,98429.59
2023-02-24T16:43:48.464Z,98428.28
2023-02-24T16:46:19.289Z,98434.53
2023-02-24T16:48:49.271Z,98439.44
2023-02-24T16:51:16.788Z,98430.69
2023-02-24T16:53:45.622Z,98431.22
2023-02-24T16:56:12.450Z,98419.44
2023-02-24T16:58:39.260Z,98428.84
2023-02-24T17:01:06.462Z,98438.25
2023-02-24T17:03:45.900Z,98430.31
2023-02-24T17:06:12.922Z,98430.31
2023-02-24T17:08:39.980Z,98423.28
2023-02-24T17:11:12.238Z,98428.09
2023-02-24T17:13:39.143Z,98433.97
2023-02-24T17:16:07.420Z,98444.22
2023-02-24T17:18:34.428Z,98433.31
2023-02-24T17:21:01.460Z,98437.00
2023-02-24T17:23:28.445Z,98432.41
2023-02-24T17:26:00.593Z,98435.22
2023-02-24T17:28:29.159Z,98427.38
2023-02-24T17:30:56.445Z,98426.69
2023-02-24T17:33:23.780Z,98423.81
2023-02-24T17:35:55.354Z,98420.78
2023-02-24T17:38:22.545Z,98423.72
2023-02-24T17:40:49.716Z,98435.91
2023-02-24T17:43:16.685Z,98429.34
2023-02-24T17:45:47.205Z,98437.94
2023-02-24T17:51:00.503Z,98441.31
2023-02-24T17:53:28.350Z,98447.19
2023-02-24T17:56:03.268Z,98451.75
2023-02-24T17:58:32.628Z,98454.47
2023-02-24T18:01:02.630Z,98451.19
2023-02-24T18:03:30.526Z,98452.84
2023-02-24T18:05:59.308Z,98454.38
2023-02-24T18:08:26.535Z,98455.19
2023-02-24T18:10:54.206Z,98457.31
2023-02-24T18:13:21.575Z,98449.78
2023-02-24T18:15:49.130Z,98452.84
2023-02-24T18:18:31.571Z,98458.34
2023-02-24T18:21:06.046Z,98460.25
2023-02-24T18:23:33.832Z,98451.94
2023-02-24T18:26:08.591Z,98450.31
2023-02-24T18:28:40.753Z,98453.00
2023-02-24T18:31:16.633Z,98449.16
2023-02-24T18:33:45.735Z,98454.88
2023-02-24T18:36:14.156Z,98452.75
2023-02-24T18:38:41.198Z,98450.53
2023-02-24T18:41:11.564Z,98457.25
2023-02-24T18:43:38.397Z,98456.78
2023-02-24T18:46:09.101Z,98460.25
2023-02-24T18:48:36.259Z,98464.50
2023-02-24T18:51:04.819Z,98462.28
2023-02-24T18:53:33.653Z,98463.59
2023-02-24T18:56:01.763Z,98465.13
2023-02-24T18:58:29.173Z,98456.91
2023-02-24T19:00:56.610Z,98462.31
2023-02-24T19:03:24.436Z,98463.94
2023-02-24T19:05:51.898Z,98461.25
2023-02-24T19:08:20.343Z,98471.47
2023-02-24T19:10:47.301Z,98470.41
2023-02-24T19:13:15.135Z,98458.78
2023-02-24T19:15:42.296Z,98466.06
2023-02-24T19:18:09.483Z,98469.81
2023-02-24T19:20:36.527Z,98463.47
2023-02-24T19:23:03.332Z,98458.56
2023-02-24T19:25:33.931Z,98458.00
2023-02-24T19:28:01.144Z,98467.94
2023-02-24T19:30:28.053Z,98467.59
2023-02-24T19:32:55.176Z,98464.88
2023-02-24T19:35:22.160Z,98468.41
2023-02-24T19:37:49.004Z,98468.28
2023-02-24T19:40:15.924Z,98461.03
2023-02-24T19:42:44.017Z,98469.72
2023-02-24T19:45:11.059Z,98468.06
2023-02-24T19:47:37.887Z,98475.31
2023-02-24T19:50:05.617Z,98472.41
2023-02-24T19:52:32.515Z,98479.44
2023-02-24T19:54:59.365Z,98484.13
2023-02-24T19:57:26.147Z,98487.41
2023-02-24T19:59:54.348Z,98481.91
2023-02-24T20:02:21.164Z,98474.78
2023-02-24T20:04:47.963Z,98472.53
2023-02-24T20:07:14.828Z,98485.66
2023-02-24T20:09:42.540Z,98483.53
2023-02-24T20:12:10.122Z,98480.75
2023-02-24T20:14:37.057Z,98479.34
2023-02-24T20:17:05.385Z,98486.59
2023-02-24T20:19:34.256Z,98488.69
2023-02-24T20:22:01.615Z,98491.03
2023-02-24T20:24:29.413Z,98514.47
2023-02-24T20:26:56.788Z,98507.53
2023-02-24T20:29:24.159Z,98517.72
2023-02-24T20:31:51.179Z,98515.59
2023-02-24T20:34:19.461Z,98518.13
2023-02-24T20:36:46.606Z,98534.63
2023-02-24T20:39:13.973Z,98524.47
2023-02-24T20:41:41.608Z,98531.44
2023-02-24T20:44:09.625Z,98534.56
2023-02-24T20:46:37.463Z,98544.81
2023-02-24T20:49:07.907Z,98558.06
2023-02-24T20:51:37.516Z,98553.25
2023-02-24T20:54:05.718Z,98553.75
2023-02-24T20:56:35.936Z,98566.97
2023-02-24T20:59:07.436Z,98570.13
2023-02-24T21:01:36.176Z,98569.91
2023-02-24T21:04:04.168Z,98561.72
2023-02-24T21:06:31.294Z,98563.38
2023-02-24T21:08:59.508Z,98556.81
2023-02-24T21:11:27.444Z,98551.53
2023-02-24T21:13:54.659Z,98561.38
2023-02-24T21:16:22.560Z,98561.25
2023-02-24T21:18:51.179Z,98563.47
2023-02-24T21:21:19.021Z,98554.31
2023-02-24T21:23:46.695Z,98558.91
2023-02-24T21:26:16.047Z,98568.44
2023-02-24T21:28:43.393Z,98571.19
2023-02-24T21:31:13.509Z,98577.81
2023-02-24T21:33:40.824Z,98576.97
2023-02-24T21:36:13.593Z,98581.53
2023-02-24T21:38:40.768Z,98573.97
2023-02-24T21:41:13.173Z,98576.31
2023-02-24T21:43:42.126Z,98574.50
2023-02-24T21:46:13.288Z,98568.66
2023-02-24T21:48:41.205Z,98577.34
2023-02-24T21:51:11.029Z,98577.22
2023-02-24T21:53:39.815Z,98580.34
2023-02-24T21:56:11.244Z,98576.56
2023-02-24T21:58:40.678Z,98591.34
2023-02-24T22:01:13.030Z,98586.81
2023-02-24T22:03:40.202Z,98584.94
2023-02-24T22:06:09.627Z,98583.66
2023-02-24T22:08:36.464Z,98587.75
2023-02-24T22:11:03.896Z,98584.72
2023-02-24T22:13:30.980Z,98588.81
2023-02-24T22:15:59.227Z,98591.63
2023-02-24T22:18:26.014Z,98591.59
2023-02-24T22:20:54.051Z,98597.31
2023-02-24T22:23:21.208Z,98580.16
2023-02-24T22:25:47.988Z,98589.50
2023-02-24T22:28:16.507Z,98582.59
2023-02-24T22:30:43.248Z,98582.56
2023-02-24T22:33:11.713Z,98583.81
2023-02-24T22:35:39.128Z,98590.38
2023-02-24T22:38:05.917Z,98588.53
2023-02-24T22:40:32.719Z,98590.69
2023-02-24T22:42:59.509Z,98594.16
2023-02-24T22:45:26.291Z,98591.78
2023-02-24T22:47:53.166Z,98580.09
2023-02-24T22:50:21.537Z,98592.75
2023-02-24T22:52:48.380Z,98591.69
2023-02-24T22:55:15.278Z,98608.59
2023-02-24T22:57:42.088Z,98607.78
2023-02-24T23:00:13.050Z,98602.88
2023-02-24T23:02:39.835Z,98608.41
2023-02-24T23:05:07.426Z,98607.03
2023-02-24T23:07:35.627Z,98616.28
2023-02-24T23:10:02.580Z,98610.72
2023-02-24T23:12:29.531Z,98614.06
2023-02-24T23:14:57.550Z,98616.22
2023-02-24T23:17:24.421Z,98625.69
2023-02-24T23:19:51.255Z,98633.31
2023-02-24T23:22:18.050Z,98636.59
2023-02-24T23:24:46.250Z,98631.75
2023-02-24T23:27:13.123Z,98642.53
2023-02-24T23:29:40.158Z,98631.34
2023-02-24T23:32:07.027Z,98635.06
2023-02-24T23:34:33.980Z,98645.28
2023-02-24T23:37:00.754Z,98642.81
2023-02-24T23:39:27.526Z,98639.03
2023-02-24T23:41:57.332Z,98637.66
2023-02-24T23:44:24.850Z,98640.72
2023-02-24T23:46:51.710Z,98649.25
2023-02-24T23:49:18.499Z,98645.50
2023-02-24T23:51:48.745Z,98651.44
2023-02-24T23:54:16.824Z,98643.69
2023-02-24T23:56:43.747Z,98652.81
2023-02-24T23:59:12.050Z,98642.50
